createdAt,value
2019-02-16T00:00:56.075Z,18.90
2019-02-16T00:03:24.319Z,18.80
2019-02-16T00:05:52.165Z,18.80
2019-02-16T00:08:20.019Z,18.80
2019-02-16T00:10:55.769Z,18.80
2019-02-16T00:13:24.151Z,18.80
2019-02-16T00:15:52.363Z,18.80
2019-02-16T00:18:33.000Z,18.80
2019-02-16T00:21:04.047Z,18.80
2019-02-16T00:23:30.835Z,18.80
2019-02-16T00:25:58.750Z,18.80
2019-02-16T00:28:26.666Z,18.80
2019-02-16T00:30:54.925Z,18.70
2019-02-16T00:33:22.775Z,18.70
2019-02-16T00:35:50.699Z,18.70
2019-02-16T00:38:18.542Z,18.70
2019-02-16T00:40:46.392Z,18.70
2019-02-16T00:43:14.436Z,18.70
2019-02-16T00:45:42.332Z,18.70
2019-02-16T00:48:10.751Z,18.70
2019-02-16T00:50:38.659Z,18.70
2019-02-16T00:53:10.316Z,18.70
2019-02-16T00:55:38.162Z,18.70
2019-02-16T00:58:06.019Z,18.60
2019-02-16T01:00:33.863Z,18.60
2019-02-16T01:03:01.788Z,18.60
2019-02-16T01:05:29.631Z,18.60
2019-02-16T01:07:57.832Z,18.60
2019-02-16T01:10:25.675Z,18.60
2019-02-16T01:12:53.515Z,18.60
2019-02-16T01:15:21.762Z,18.60
2019-02-16T01:17:49.682Z,18.50
2019-02-16T01:20:17.545Z,18.50
2019-02-16T01:22:45.382Z,18.50
2019-02-16T01:25:13.240Z,18.50
2019-02-16T01:27:41.082Z,18.50
2019-02-16T01:30:09.916Z,18.50
2019-02-16T01:32:37.831Z,18.50
2019-02-16T01:35:06.142Z,18.50
2019-02-16T01:37:33.996Z,18.50
2019-02-16T01:40:01.841Z,18.50
2019-02-16T01:42:30.026Z,18.50
2019-02-16T01:44:58.283Z,18.50
2019-02-16T01:47:26.122Z,18.40
2019-02-16T01:49:54.038Z,18.40
2019-02-16T01:52:21.887Z,18.40
2019-02-16T01:54:50.080Z,18.40
2019-02-16T01:57:17.931Z,18.40
2019-02-16T01:59:45.792Z,18.40
2019-02-16T02:02:13.631Z,18.40
2019-02-16T02:04:41.559Z,18.40
2019-02-16T02:07:09.895Z,18.40
2019-02-16T02:09:37.740Z,18.40
2019-02-16T02:12:05.939Z,18.40
2019-02-16T02:14:33.782Z,18.30
2019-02-16T02:17:01.628Z,18.30
2019-02-16T02:19:29.567Z,18.30
2019-02-16T02:21:57.412Z,18.30
2019-02-16T02:24:25.571Z,18.30
2019-02-16T02:26:53.416Z,18.30
2019-02-16T02:29:21.287Z,18.30
2019-02-16T02:31:49.124Z,18.30
2019-02-16T02:34:17.001Z,18.30
2019-02-16T02:36:44.841Z,18.30
2019-02-16T02:39:12.719Z,18.30
2019-02-16T02:41:40.559Z,18.30
2019-02-16T02:44:08.732Z,18.20
2019-02-16T02:46:36.584Z,18.20
2019-02-16T02:49:04.434Z,18.20
2019-02-16T02:51:32.278Z,18.20
2019-02-16T02:54:00.126Z,18.20
2019-02-16T02:56:27.981Z,18.20
2019-02-16T02:58:55.827Z,18.20
2019-02-16T03:01:23.759Z,18.20
2019-02-16T03:03:53.124Z,18.20
2019-02-16T03:06:21.039Z,18.20
2019-02-16T03:08:48.878Z,18.20
2019-02-16T03:11:16.731Z,18.20
2019-02-16T03:13:44.567Z,18.20
2019-02-16T03:16:12.421Z,18.10
2019-02-16T03:18:40.277Z,18.10
2019-02-16T03:21:08.196Z,18.10
2019-02-16T03:23:36.076Z,18.10
2019-02-16T03:26:26.204Z,18.10
2019-02-16T03:28:59.136Z,18.10
2019-02-16T03:31:55.693Z,18.10
2019-02-16T03:34:25.821Z,18.10
2019-02-16T03:37:01.488Z,18.10
2019-02-16T03:39:30.845Z,18.10
2019-02-16T03:41:59.060Z,18.10
2019-02-16T03:44:27.257Z,18.10
2019-02-16T03:46:55.111Z,18.10
2019-02-16T03:49:23.031Z,18.10
2019-02-16T03:51:50.917Z,18.00
2019-02-16T03:54:18.764Z,18.00
2019-02-16T03:56:46.609Z,18.00
2019-02-16T03:59:14.458Z,18.00
2019-02-16T04:01:42.294Z,18.00
2019-02-16T04:04:10.175Z,18.00
2019-02-16T04:06:38.029Z,18.00
2019-02-16T04:09:06.618Z,18.00
2019-02-16T04:11:34.571Z,18.00
2019-02-16T04:14:02.440Z,18.00
2019-02-16T04:16:30.287Z,18.00
2019-02-16T04:18:58.215Z,18.00
2019-02-16T04:21:26.069Z,18.00
2019-02-16T04:23:54.215Z,18.00
2019-02-16T04:26:22.490Z,17.90
2019-02-16T04:28:50.332Z,17.90
2019-02-16T04:31:18.261Z,17.90
2019-02-16T04:33:46.098Z,17.90
2019-02-16T04:36:14.263Z,17.90
2019-02-16T04:38:42.106Z,17.90
2019-02-16T04:41:09.955Z,17.90
2019-02-16T04:43:38.075Z,17.90
2019-02-16T04:46:06.002Z,17.90
2019-02-16T04:48:34.001Z,17.90
2019-02-16T04:51:01.947Z,17.90
2019-02-16T04:53:29.790Z,17.90
2019-02-16T04:55:57.639Z,17.90
2019-02-16T04:58:25.772Z,17.90
2019-02-16T05:00:53.624Z,17.90
2019-02-16T05:03:21.817Z,17.80
2019-02-16T05:05:49.739Z,17.80
2019-02-16T05:08:17.678Z,17.80
2019-02-16T05:10:45.686Z,17.80
2019-02-16T05:13:13.895Z,17.80
2019-02-16T05:15:42.063Z,17.80
2019-02-16T05:18:10.260Z,17.80
2019-02-16T05:20:38.115Z,17.80
2019-02-16T05:23:05.964Z,17.80
2019-02-16T05:25:34.143Z,17.80
2019-02-16T05:28:01.992Z,17.80
2019-02-16T05:30:29.836Z,17.80
2019-02-16T05:32:57.701Z,17.80
2019-02-16T05:35:25.564Z,17.70
2019-02-16T05:37:53.404Z,17.70
2019-02-16T05:40:21.324Z,17.70
2019-02-16T05:42:49.171Z,17.70
2019-02-16T05:45:17.023Z,17.70
2019-02-16T05:47:45.165Z,17.70
2019-02-16T05:50:13.002Z,17.70
2019-02-16T05:52:42.021Z,17.70
2019-02-16T05:55:09.879Z,17.70
2019-02-16T05:57:38.044Z,17.70
2019-02-16T06:00:06.656Z,17.70
2019-02-16T06:02:34.495Z,17.70
2019-02-16T06:05:02.372Z,17.70
2019-02-16T06:07:30.531Z,17.70
2019-02-16T06:09:58.724Z,17.70
2019-02-16T06:12:26.567Z,17.70
2019-02-16T06:14:54.420Z,17.70
2019-02-16T06:17:22.279Z,17.70
2019-02-16T06:19:50.494Z,17.70
2019-02-16T06:22:18.358Z,17.70
2019-02-16T06:24:46.238Z,17.70
2019-02-16T06:27:14.158Z,17.70
2019-02-16T06:29:42.008Z,17.70
2019-02-16T06:32:09.923Z,17.70
2019-02-16T06:34:37.794Z,17.70
2019-02-16T06:37:21.135Z,17.70
2019-02-16T06:39:49.743Z,17.70
2019-02-16T06:42:17.665Z,17.70
2019-02-16T06:44:45.606Z,17.70
2019-02-16T06:47:13.456Z,17.60
2019-02-16T06:49:41.300Z,17.60
2019-02-16T06:52:09.218Z,17.60
2019-02-16T06:54:37.062Z,17.60
2019-02-16T06:57:11.290Z,17.70
2019-02-16T06:59:39.143Z,17.80
2019-02-16T07:02:07.068Z,18.00
2019-02-16T07:04:34.910Z,18.10
2019-02-16T07:07:02.762Z,18.20
2019-02-16T07:09:30.599Z,18.30
2019-02-16T07:11:58.443Z,18.30
2019-02-16T07:14:26.686Z,18.40
2019-02-16T07:17:19.751Z,18.50
2019-02-16T07:19:50.895Z,18.50
2019-02-16T07:22:18.738Z,18.60
2019-02-16T07:24:46.582Z,18.60
2019-02-16T07:27:14.428Z,18.70
2019-02-16T07:29:42.277Z,18.70
2019-02-16T07:32:10.107Z,18.70
2019-02-16T07:34:37.960Z,18.80
2019-02-16T07:37:05.800Z,18.80
2019-02-16T07:39:33.718Z,18.80
2019-02-16T07:42:01.644Z,18.90
2019-02-16T07:45:04.003Z,18.70
2019-02-16T07:47:47.599Z,18.80
2019-02-16T07:50:33.239Z,18.90
2019-02-16T07:53:38.608Z,19.00
2019-02-16T07:56:12.115Z,19.10
2019-02-16T07:58:54.125Z,19.10
2019-02-16T08:01:30.159Z,19.30
2019-02-16T08:04:17.128Z,19.20
2019-02-16T08:07:07.309Z,19.20
2019-02-16T08:10:03.596Z,19.30
2019-02-16T08:12:49.436Z,18.70
2019-02-16T08:15:39.431Z,18.80
2019-02-16T08:18:29.201Z,19.00
2019-02-16T08:21:22.016Z,19.10
2019-02-16T08:24:07.742Z,19.20
2019-02-16T08:26:47.738Z,19.10
2019-02-16T08:29:40.592Z,19.10
2019-02-16T08:32:20.246Z,19.10
2019-02-16T08:34:53.526Z,19.00
2019-02-16T08:37:49.360Z,18.90
2019-02-16T08:40:33.589Z,18.90
2019-02-16T08:43:23.987Z,18.90
2019-02-16T08:46:09.963Z,18.90
2019-02-16T08:48:55.762Z,19.00
2019-02-16T08:51:33.057Z,19.10
2019-02-16T08:54:26.095Z,19.10
2019-02-16T08:57:22.354Z,19.10
2019-02-16T09:00:07.223Z,19.10
2019-02-16T09:02:50.651Z,19.20
2019-02-16T09:05:23.852Z,19.20
2019-02-16T09:07:58.161Z,19.20
2019-02-16T09:10:54.245Z,19.20
2019-02-16T09:13:43.435Z,19.20
2019-02-16T09:16:30.412Z,19.30
2019-02-16T09:19:23.490Z,19.30
2019-02-16T09:22:09.003Z,19.30
2019-02-16T09:25:08.495Z,19.30
2019-02-16T09:27:54.297Z,19.30
2019-02-16T09:30:50.825Z,19.30
2019-02-16T09:33:31.186Z,19.30
2019-02-16T09:36:13.198Z,19.30
2019-02-16T09:39:12.679Z,19.30
2019-02-16T09:41:58.406Z,19.30
2019-02-16T09:44:47.779Z,19.30
2019-02-16T09:47:36.615Z,19.40
2019-02-16T09:50:14.291Z,19.40
2019-02-16T09:53:13.644Z,19.40
2019-02-16T09:55:59.346Z,19.60
2019-02-16T09:58:46.634Z,19.70
2019-02-16T10:01:27.694Z,19.80
2019-02-16T10:04:14.749Z,19.80
2019-02-16T10:06:51.083Z,19.80
2019-02-16T10:09:25.187Z,19.90
2019-02-16T10:12:11.163Z,20.00
2019-02-16T10:14:55.763Z,20.10
2019-02-16T10:17:35.875Z,20.10
2019-02-16T10:20:14.536Z,20.00
2019-02-16T10:23:00.602Z,20.00
2019-02-16T10:25:55.002Z,20.10
2019-02-16T10:28:48.445Z,20.00
2019-02-16T10:31:44.692Z,20.10
2019-02-16T10:34:29.952Z,20.00
2019-02-16T10:37:23.586Z,20.10
2019-02-16T10:40:10.582Z,20.10
2019-02-16T10:42:57.851Z,20.10
2019-02-16T10:45:46.527Z,20.10
2019-02-16T10:48:27.887Z,20.10
2019-02-16T10:51:01.953Z,20.10
2019-02-16T10:53:58.082Z,20.10
2019-02-16T10:56:41.816Z,20.00
2019-02-16T10:59:36.074Z,20.00
2019-02-16T11:02:31.962Z,20.00
2019-02-16T11:05:21.805Z,20.10
2019-02-16T11:08:11.766Z,20.10
2019-02-16T11:10:57.011Z,20.20
2019-02-16T11:13:59.202Z,20.20
2019-02-16T11:16:39.586Z,20.20
2019-02-16T11:19:17.660Z,20.30
2019-02-16T11:22:05.076Z,20.30
2019-02-16T11:24:54.879Z,20.30
2019-02-16T11:27:47.960Z,20.30
2019-02-16T11:30:41.274Z,20.30
2019-02-16T11:33:30.156Z,20.30
2019-02-16T11:36:10.592Z,20.30
2019-02-16T11:38:55.095Z,20.30
2019-02-16T11:41:29.099Z,20.30
2019-02-16T11:44:15.584Z,20.30
2019-02-16T11:47:08.467Z,20.30
2019-02-16T11:49:52.268Z,20.30
2019-02-16T11:52:42.338Z,20.30
2019-02-16T11:55:28.103Z,20.30
2019-02-16T11:58:13.913Z,20.30
2019-02-16T12:01:16.187Z,20.30
2019-02-16T12:04:14.047Z,20.30
2019-02-16T12:06:48.098Z,20.30
2019-02-16T12:09:44.256Z,20.30
2019-02-16T12:12:43.607Z,20.40
2019-02-16T12:15:24.990Z,20.40
2019-02-16T12:18:18.056Z,20.40
2019-02-16T12:21:17.527Z,20.40
2019-02-16T12:24:10.579Z,20.30
2019-02-16T12:27:00.898Z,20.30
2019-02-16T12:29:43.125Z,20.40
2019-02-16T12:32:28.860Z,20.50
2019-02-16T12:35:14.587Z,20.50
2019-02-16T12:37:57.387Z,20.50
2019-02-16T12:40:33.259Z,20.50
2019-02-16T12:43:18.544Z,20.50
2019-02-16T12:46:04.636Z,20.60
2019-02-16T12:48:46.351Z,20.70
2019-02-16T12:51:45.418Z,20.60
2019-02-16T12:54:22.409Z,20.60
2019-02-16T12:56:55.284Z,20.60
2019-02-16T12:59:28.699Z,20.60
2019-02-16T13:02:22.128Z,20.60
2019-02-16T13:05:18.119Z,20.60
2019-02-16T13:07:54.584Z,20.60
2019-02-16T13:10:35.564Z,20.60
2019-02-16T13:13:34.524Z,20.60
2019-02-16T13:16:12.683Z,20.60
2019-02-16T13:19:02.460Z,20.60
2019-02-16T13:21:43.898Z,20.60
2019-02-16T13:24:29.866Z,20.60
2019-02-16T13:27:15.638Z,20.60
2019-02-16T13:29:58.975Z,20.60
2019-02-16T13:32:48.823Z,20.50
2019-02-16T13:35:25.335Z,20.50
2019-02-16T13:38:24.695Z,20.50
2019-02-16T13:41:14.679Z,20.50
2019-02-16T13:43:48.451Z,20.50
2019-02-16T13:46:34.116Z,20.50
2019-02-16T13:49:18.971Z,20.50
2019-02-16T13:52:14.918Z,20.40
2019-02-16T13:54:53.614Z,20.40
2019-02-16T13:57:33.346Z,20.40
2019-02-16T14:00:20.072Z,20.40
2019-02-16T14:02:54.909Z,20.50
2019-02-16T14:05:40.896Z,20.50
2019-02-16T14:08:28.200Z,20.30
2019-02-16T14:11:21.224Z,20.10
2019-02-16T14:14:10.751Z,20.00
2019-02-16T14:16:56.287Z,19.90
2019-02-16T14:19:24.156Z,19.90
2019-02-16T14:21:52.375Z,19.90
2019-02-16T14:24:40.001Z,19.90
2019-02-16T14:27:07.850Z,19.90
2019-02-16T14:29:36.036Z,19.90
2019-02-16T14:32:03.884Z,19.90
2019-02-16T14:34:31.723Z,19.90
2019-02-16T14:37:00.240Z,19.90
2019-02-16T14:39:32.615Z,19.90
2019-02-16T14:42:00.454Z,19.90
2019-02-16T14:44:28.634Z,19.80
2019-02-16T14:46:56.514Z,19.80
2019-02-16T14:49:24.675Z,19.80
2019-02-16T14:51:52.959Z,19.90
2019-02-16T14:54:20.801Z,20.10
2019-02-16T14:56:48.650Z,20.10
2019-02-16T14:59:16.571Z,20.10
2019-02-16T15:01:44.417Z,20.00
2019-02-16T15:04:12.591Z,20.10
2019-02-16T15:06:40.431Z,20.20
2019-02-16T15:09:08.751Z,20.20
2019-02-16T15:11:36.590Z,20.10
2019-02-16T15:14:04.435Z,20.00
2019-02-16T15:16:32.283Z,20.00
2019-02-16T15:19:00.130Z,20.10
2019-02-16T15:21:28.325Z,20.20
2019-02-16T15:23:56.168Z,20.30
2019-02-16T15:26:28.538Z,20.30
2019-02-16T15:28:53.681Z,20.30
2019-02-16T15:31:21.544Z,20.30
2019-02-16T15:33:49.415Z,20.40
2019-02-16T15:36:23.706Z,20.40
2019-02-16T15:38:47.554Z,20.30
2019-02-16T15:41:15.390Z,20.40
2019-02-16T15:43:43.263Z,20.40
2019-02-16T15:46:11.470Z,20.30
2019-02-16T15:48:39.403Z,20.30
2019-02-16T15:51:07.799Z,20.30
2019-02-16T15:53:35.666Z,20.30
2019-02-16T15:56:10.145Z,20.30
2019-02-16T15:58:33.149Z,20.30
2019-02-16T16:01:01.076Z,20.30
2019-02-16T16:03:29.398Z,20.30
2019-02-16T16:05:57.544Z,20.30
2019-02-16T16:08:41.720Z,20.30
2019-02-16T16:11:34.631Z,20.30
2019-02-16T16:14:21.627Z,20.30
2019-02-16T16:17:09.336Z,20.30
2019-02-16T16:19:56.627Z,20.30
2019-02-16T16:22:52.460Z,20.40
2019-02-16T16:25:31.479Z,20.40
2019-02-16T16:28:33.775Z,20.40
2019-02-16T16:31:27.096Z,20.50
2019-02-16T16:34:12.751Z,20.60
2019-02-16T16:37:08.959Z,20.60
2019-02-16T16:40:11.711Z,20.60
2019-02-16T16:43:04.428Z,20.60
2019-02-16T16:45:57.747Z,20.60
2019-02-16T16:48:43.188Z,20.80
2019-02-16T16:51:30.588Z,20.90
2019-02-16T16:54:06.608Z,20.90
2019-02-16T16:56:40.485Z,20.90
2019-02-16T16:59:35.285Z,20.90
2019-02-16T17:02:25.515Z,20.80
2019-02-16T17:05:00.753Z,20.60
2019-02-16T17:07:50.495Z,20.70
2019-02-16T17:10:46.471Z,20.80
2019-02-16T17:13:32.143Z,20.90
2019-02-16T17:16:28.299Z,21.00
2019-02-16T17:19:15.384Z,21.10
2019-02-16T17:22:11.267Z,21.20
2019-02-16T17:24:50.333Z,21.30
2019-02-16T17:27:49.780Z,21.30
2019-02-16T17:30:46.145Z,21.30
2019-02-16T17:33:23.739Z,21.40
2019-02-16T17:36:10.781Z,21.40
2019-02-16T17:39:02.308Z,21.50
2019-02-16T17:41:48.005Z,21.50
2019-02-16T17:44:33.892Z,21.50
2019-02-16T17:47:24.223Z,21.50
2019-02-16T17:50:29.556Z,21.50
2019-02-16T17:53:25.772Z,21.60
2019-02-16T17:56:09.450Z,21.50
2019-02-16T17:58:56.416Z,21.60
2019-02-16T18:01:43.386Z,21.60
2019-02-16T18:04:29.355Z,21.60
2019-02-16T18:07:25.615Z,21.60
2019-02-16T18:10:02.003Z,21.60
2019-02-16T18:12:41.407Z,21.60
2019-02-16T18:15:27.915Z,21.60
2019-02-16T18:18:06.129Z,21.60
2019-02-16T18:21:05.441Z,21.70
2019-02-16T18:23:50.505Z,21.70
2019-02-16T18:26:36.119Z,21.70
2019-02-16T18:29:25.149Z,21.70
2019-02-16T18:32:12.301Z,21.60
2019-02-16T18:35:00.837Z,21.60
2019-02-16T18:37:37.168Z,21.70
2019-02-16T18:40:11.855Z,21.60
2019-02-16T18:43:01.998Z,21.60
2019-02-16T18:46:07.197Z,21.60
2019-02-16T18:48:41.859Z,21.60
2019-02-16T18:51:44.216Z,21.60
2019-02-16T18:54:29.824Z,21.50
2019-02-16T18:57:16.819Z,21.60
2019-02-16T19:00:19.270Z,21.50
2019-02-16T19:02:58.337Z,21.50
2019-02-16T19:05:54.280Z,21.50
2019-02-16T19:08:44.012Z,21.60
2019-02-16T19:11:29.720Z,21.50
2019-02-16T19:14:07.420Z,21.50
2019-02-16T19:17:13.251Z,21.40
2019-02-16T19:19:59.055Z,21.40
2019-02-16T19:22:39.411Z,21.40
2019-02-16T19:25:45.059Z,21.50
2019-02-16T19:28:28.812Z,21.10
2019-02-16T19:31:15.964Z,21.20
2019-02-16T19:34:18.030Z,21.20
2019-02-16T19:37:02.992Z,21.20
2019-02-16T19:39:41.059Z,21.20
2019-02-16T19:42:28.124Z,21.20
2019-02-16T19:45:08.327Z,21.20
2019-02-16T19:47:59.755Z,21.10
2019-02-16T19:50:46.719Z,21.10
2019-02-16T19:53:33.687Z,21.10
2019-02-16T19:56:23.779Z,21.10
2019-02-16T19:59:09.431Z,21.10
2019-02-16T20:01:54.662Z,21.10
2019-02-16T20:04:49.746Z,21.10
2019-02-16T20:07:42.991Z,21.00
2019-02-16T20:10:39.022Z,21.00
2019-02-16T20:13:15.011Z,21.00
2019-02-16T20:15:50.823Z,21.00
2019-02-16T20:18:46.679Z,21.00
2019-02-16T20:21:39.791Z,21.00
2019-02-16T20:24:27.129Z,21.00
2019-02-16T20:27:19.615Z,21.00
2019-02-16T20:29:57.685Z,21.00
2019-02-16T20:32:48.025Z,21.00
2019-02-16T20:35:34.356Z,21.00
2019-02-16T20:38:20.231Z,21.00
2019-02-16T20:41:07.190Z,20.90
2019-02-16T20:44:00.052Z,20.90
2019-02-16T20:46:50.068Z,20.90
2019-02-16T20:49:41.779Z,20.90
2019-02-16T20:52:34.905Z,20.90
2019-02-16T20:55:24.632Z,20.90
2019-02-16T20:58:11.985Z,20.90
2019-02-16T21:01:17.574Z,20.90
2019-02-16T21:04:13.887Z,20.90
2019-02-16T21:07:06.862Z,20.90
2019-02-16T21:09:45.852Z,20.80
2019-02-16T21:12:31.731Z,20.80
2019-02-16T21:15:12.224Z,20.80
2019-02-16T21:17:54.342Z,20.80
2019-02-16T21:20:40.209Z,20.80
2019-02-16T21:23:30.683Z,20.80
2019-02-16T21:26:36.325Z,20.80
2019-02-16T21:29:18.375Z,20.80
2019-02-16T21:32:04.147Z,20.80
2019-02-16T21:34:54.395Z,20.80
2019-02-16T21:37:43.111Z,20.90
2019-02-16T21:40:17.804Z,20.60
2019-02-16T21:42:54.052Z,20.60
2019-02-16T21:45:30.431Z,20.70
2019-02-16T21:48:29.529Z,20.70
2019-02-16T21:51:25.847Z,20.70
2019-02-16T21:54:15.665Z,20.70
2019-02-16T21:57:01.411Z,20.60
2019-02-16T21:59:52.461Z,20.40
2019-02-16T22:02:45.484Z,20.50
2019-02-16T22:05:29.131Z,20.50
2019-02-16T22:08:18.955Z,20.50
2019-02-16T22:11:04.991Z,20.60
2019-02-16T22:13:33.159Z,20.60
2019-02-16T22:16:01.439Z,20.60
2019-02-16T22:18:29.283Z,20.60
2019-02-16T22:20:57.150Z,20.60
2019-02-16T22:23:25.260Z,20.50
2019-02-16T22:25:53.518Z,20.50
2019-02-16T22:28:30.494Z,20.50
2019-02-16T22:30:51.323Z,20.40
2019-02-16T22:33:19.492Z,20.40
2019-02-16T22:35:47.340Z,20.40
2019-02-16T22:38:15.510Z,20.40
2019-02-16T22:40:43.355Z,20.40
2019-02-16T22:43:11.272Z,20.40
2019-02-16T22:45:39.114Z,20.30
2019-02-16T22:48:07.411Z,20.30
2019-02-16T22:50:35.246Z,20.30
2019-02-16T22:53:03.201Z,20.30
2019-02-16T22:55:31.049Z,20.30
2019-02-16T22:57:58.889Z,20.30
2019-02-16T23:00:37.217Z,20.30
2019-02-16T23:03:06.663Z,20.30
2019-02-16T23:05:34.839Z,20.30
2019-02-16T23:08:04.328Z,20.30
2019-02-16T23:10:32.408Z,20.20
2019-02-16T23:13:00.327Z,20.20
2019-02-16T23:15:28.555Z,20.20
2019-02-16T23:17:56.396Z,20.20
2019-02-16T23:20:24.591Z,20.20
2019-02-16T23:22:52.431Z,20.10
2019-02-16T23:25:20.258Z,20.10
2019-02-16T23:27:48.104Z,20.00
2019-02-16T23:30:15.954Z,19.70
2019-02-16T23:32:43.820Z,19.50
2019-02-16T23:35:11.667Z,19.50
2019-02-16T23:37:39.555Z,19.40
2019-02-16T23:40:07.408Z,19.40
2019-02-16T23:42:35.283Z,19.40
2019-02-16T23:45:03.567Z,19.30
2019-02-16T23:47:31.439Z,19.20
2019-02-16T23:49:59.373Z,19.20
2019-02-16T23:52:27.275Z,19.20
2019-02-16T23:54:55.192Z,19.20
2019-02-16T23:57:23.083Z,19.20
2019-02-16T23:59:50.926Z,19.20
